Time;durP1;ratioP1;P1;durP2;ratioP2;P2;SDS_P1;SDS_P2;PMS_P1;PMS_P2;Temp;Humidity;BMP_temperature;BMP_pressure;BME280_temperature;BME280_humidity;BME280_pressure;Samples;Min_cycle;Max_cycle;Signal;HPM_P1;HPM_P2
2023/01/18 00:00:39;;;;;;;7.67;6.07;;;8.30;59.90;;;;;;5001980;28;21255;-57
2023/01/18 00:03:07;;;;;;;6.63;5.60;;;8.30;59.80;;;;;;5009592;28;20558;-57
2023/01/18 00:05:33;;;;;;;9.37;6.90;;;8.40;59.80;;;;;;5001712;28;20449;-57
2023/01/18 00:07:59;;;;;;;7.10;5.83;;;8.30;59.70;;;;;;5004737;28;20547;-56
2023/01/18 00:10:25;;;;;;;9.30;6.60;;;8.30;59.70;;;;;;5001182;28;20874;-57
2023/01/18 00:12:51;;;;;;;7.43;5.90;;;8.30;59.70;;;;;;4999882;28;20201;-56
2023/01/18 00:15:16;;;;;;;8.70;6.63;;;8.30;59.80;;;;;;5003288;28;20297;-57
2023/01/18 00:17:50;;;;;;;16.33;7.60;;;8.30;59.90;;;;;;5000765;28;20220;-57
2023/01/18 00:20:17;;;;;;;9.20;6.60;;;8.20;59.90;;;;;;4996869;28;20360;-57
2023/01/18 00:22:43;;;;;;;8.17;6.40;;;8.20;60.00;;;;;;5003194;28;21478;-57
2023/01/18 00:25:10;;;;;;;7.50;6.10;;;8.20;60.00;;;;;;5002278;28;20453;-57
2023/01/18 00:27:43;;;;;;;7.77;6.70;;;8.30;59.90;;;;;;4998408;28;20513;-57
2023/01/18 00:30:09;;;;;;;6.83;5.90;;;8.30;59.80;;;;;;4999170;28;20445;-57
2023/01/18 00:32:36;;;;;;;9.33;6.57;;;8.30;59.80;;;;;;5004254;28;20453;-58
2023/01/18 00:35:06;;;;;;;9.63;8.63;;;8.30;59.80;;;;;;5004428;28;20452;-57
2023/01/18 00:37:35;;;;;;;8.33;7.47;;;8.30;59.90;;;;;;5001927;28;20529;-57
2023/01/18 00:40:02;;;;;;;10.30;7.10;;;8.30;59.90;;;;;;5004175;28;20638;-57
2023/01/18 00:48:34;;;;;;;7.70;6.90;;;8.20;60.30;;;;;;4995692;28;20840;-57
2023/01/18 00:51:00;;;;;;;8.90;7.30;;;8.10;60.80;;;;;;5009976;28;20567;-57
2023/01/18 00:53:25;;;;;;;10.23;7.77;;;8.10;61.10;;;;;;4995711;28;20544;-57
2023/01/18 00:55:51;;;;;;;10.10;8.27;;;8.10;61.30;;;;;;5000912;28;20728;-57
2023/01/18 00:58:17;;;;;;;9.07;7.47;;;8.10;61.20;;;;;;5011492;28;20194;-58
2023/01/18 01:00:42;;;;;;;11.30;9.13;;;8.20;61.20;;;;;;5011553;28;20233;-57
2023/01/18 01:03:08;;;;;;;12.90;10.30;;;8.20;61.00;;;;;;5005435;28;20573;-57
2023/01/18 01:08:20;;;;;;;14.03;9.97;;;8.10;60.90;;;;;;4995656;28;20774;-58
2023/01/18 01:10:50;;;;;;;13.87;10.00;;;8.10;60.80;;;;;;4999831;28;20445;-57
2023/01/18 01:27:06;;;;;;;10.57;9.07;;;8.10;60.50;;;;;;4998933;28;20970;-57
2023/01/18 01:29:32;;;;;;;11.30;9.47;;;8.20;60.40;;;;;;5004182;28;20532;-57
2023/01/18 01:31:57;;;;;;;11.60;8.83;;;8.10;60.70;;;;;;5003966;28;20273;-57
2023/01/18 01:34:23;;;;;;;14.93;9.37;;;8.10;60.50;;;;;;5002633;28;20190;-57
2023/01/18 01:36:49;;;;;;;10.30;8.83;;;8.10;60.90;;;;;;4999911;28;20651;-57
2023/01/18 01:39:15;;;;;;;12.83;8.83;;;7.80;61.80;;;;;;5000551;28;20297;-57
2023/01/18 01:41:41;;;;;;;11.73;9.43;;;7.90;62.20;;;;;;5000255;28;20437;-57
2023/01/18 01:44:18;;;;;;;14.40;11.40;;;8.00;62.10;;;;;;5002864;28;20667;-57
2023/01/18 01:46:52;;;;;;;12.50;9.67;;;8.00;61.90;;;;;;5007137;28;20209;-57
2023/01/18 01:49:25;;;;;;;10.80;9.57;;;8.00;61.50;;;;;;5012439;28;20488;-57
2023/01/18 01:52:02;;;;;;;13.20;10.33;;;8.00;61.20;;;;;;5012063;28;20548;-57
2023/01/18 01:54:58;;;;;;;13.00;9.87;;;8.00;61.10;;;;;;5012855;28;20444;-57
2023/01/18 01:57:30;;;;;;;12.97;10.27;;;8.00;61.40;;;;;;5004195;28;20456;-57
2023/01/18 02:00:12;;;;;;;11.63;10.30;;;8.00;61.30;;;;;;5006387;28;20500;-57
2023/01/18 02:02:39;;;;;;;11.90;10.30;;;8.00;61.00;;;;;;4999171;28;20542;-57
2023/01/18 02:05:07;;;;;;;11.87;9.43;;;8.10;60.70;;;;;;5002045;28;20476;-57
2023/01/18 02:07:33;;;;;;;12.07;10.10;;;8.00;60.70;;;;;;5013111;28;20445;-58
2023/01/18 02:09:59;;;;;;;11.00;9.13;;;8.10;60.70;;;;;;5001870;28;20480;-57
2023/01/18 02:12:26;;;;;;;11.77;9.27;;;8.10;60.70;;;;;;5001480;28;20436;-57
2023/01/18 02:14:53;;;;;;;12.13;10.80;;;8.00;60.50;;;;;;5001451;28;21132;-57
2023/01/18 02:17:31;;;;;;;11.53;9.60;;;8.00;60.40;;;;;;5008838;28;20488;-57
2023/01/18 02:20:36;;;;;;;14.33;10.20;;;8.00;60.20;;;;;;5009258;28;20488;-57
2023/01/18 02:23:02;;;;;;;10.23;8.97;;;8.00;60.30;;;;;;5004309;28;20461;-57
2023/01/18 02:25:56;;;;;;;10.53;9.40;;;7.90;60.40;;;;;;5001010;28;20455;-57
2023/01/18 02:28:34;;;;;;;11.47;9.60;;;7.80;61.20;;;;;;4980603;28;20207;-57
2023/01/18 02:31:23;;;;;;;9.60;8.57;;;7.90;61.40;;;;;;5000361;28;20464;-57
2023/01/18 02:34:01;;;;;;;14.10;10.23;;;7.90;61.00;;;;;;5003272;28;20504;-57
2023/01/18 02:37:03;;;;;;;11.67;9.73;;;7.80;61.10;;;;;;5001371;28;20486;-57
2023/01/18 02:39:38;;;;;;;9.93;8.60;;;7.80;61.20;;;;;;4987771;28;20578;-57
2023/01/18 02:48:21;;;;;;;10.03;8.10;;;7.80;61.20;;;;;;4999537;28;20480;-57
2023/01/18 02:50:47;;;;;;;10.57;9.03;;;7.70;61.60;;;;;;5001941;28;20436;-57
2023/01/18 02:53:14;;;;;;;12.03;9.33;;;7.70;61.90;;;;;;5000601;28;20792;-57
2023/01/18 02:55:54;;;;;;;12.37;9.17;;;7.70;62.10;;;;;;4995560;28;20434;-57
2023/01/18 02:58:26;;;;;;;10.77;9.67;;;7.60;61.90;;;;;;4991805;28;20441;-57
2023/01/18 03:01:12;;;;;;;11.43;9.00;;;7.70;61.80;;;;;;4993939;28;20460;-56
2023/01/18 03:03:42;;;;;;;12.20;8.70;;;7.70;61.70;;;;;;4999385;28;20465;-57
2023/01/18 03:06:07;;;;;;;11.93;10.73;;;7.80;61.60;;;;;;4993915;28;20438;-57
2023/01/18 03:08:39;;;;;;;10.67;8.80;;;7.80;61.20;;;;;;5008330;28;20436;-56
2023/01/18 03:11:25;;;;;;;12.83;10.10;;;7.80;61.30;;;;;;4995345;28;20198;-56
2023/01/18 03:13:51;;;;;;;13.67;10.07;;;7.90;61.30;;;;;;4993385;28;20457;-56
2023/01/18 03:16:26;;;;;;;12.60;9.53;;;7.90;61.20;;;;;;5008758;28;20425;-57
2023/01/18 03:19:01;;;;;;;11.17;8.80;;;7.90;60.80;;;;;;5008135;28;20217;-56
2023/01/18 03:21:36;;;;;;;12.57;9.97;;;7.80;60.80;;;;;;5011034;28;20967;-56
2023/01/18 03:24:05;;;;;;;11.53;9.83;;;7.80;61.30;;;;;;5012097;28;20440;-56
2023/01/18 03:26:35;;;;;;;12.50;9.90;;;7.70;61.10;;;;;;5009100;28;20440;-56
2023/01/18 03:34:53;;;;;;;10.13;8.70;;;7.70;61.20;;;;;;5012800;28;20464;-56
2023/01/18 03:37:25;;;;;;;11.80;9.10;;;7.80;61.50;;;;;;5007676;28;20496;-56
2023/01/18 03:39:55;;;;;;;11.40;8.53;;;7.80;61.30;;;;;;5007406;28;20488;-57
2023/01/18 03:42:25;;;;;;;10.60;9.23;;;7.90;61.10;;;;;;5009438;28;20457;-56
2023/01/18 03:45:11;;;;;;;10.27;8.83;;;7.90;60.90;;;;;;5007970;28;20470;-56
2023/01/18 03:47:38;;;;;;;9.83;7.93;;;7.90;60.60;;;;;;5000417;28;21376;-57
2023/01/18 03:50:04;;;;;;;10.50;9.00;;;7.90;60.40;;;;;;5008434;28;20873;-56
2023/01/18 03:52:40;;;;;;;14.93;9.43;;;8.00;60.50;;;;;;5010237;28;20519;-56
2023/01/18 03:55:24;;;;;;;11.10;9.90;;;7.80;60.60;;;;;;4995650;28;20449;-56
2023/01/18 03:58:11;;;;;;;13.10;10.57;;;7.80;60.80;;;;;;5002530;28;20544;-56
2023/01/18 04:00:38;;;;;;;11.27;9.60;;;7.80;60.80;;;;;;5009472;28;20488;-57
2023/01/18 04:03:04;;;;;;;13.23;9.93;;;7.70;61.00;;;;;;5007294;28;20445;-56
2023/01/18 04:05:30;;;;;;;11.60;9.90;;;7.70;61.20;;;;;;5005834;28;20461;-57
2023/01/18 04:07:56;;;;;;;13.00;10.33;;;7.50;62.00;;;;;;5009280;28;20465;-55
2023/01/18 04:10:22;;;;;;;15.17;11.43;;;7.40;62.70;;;;;;4996517;28;20535;-56
2023/01/18 04:12:47;;;;;;;13.00;11.07;;;7.40;62.60;;;;;;5001173;28;20437;-56
2023/01/18 04:15:13;;;;;;;11.77;10.50;;;7.50;62.70;;;;;;5005963;28;20207;-56
2023/01/18 04:17:39;;;;;;;11.40;9.60;;;7.40;62.50;;;;;;5008341;28;20194;-55
2023/01/18 04:20:05;;;;;;;12.97;9.50;;;7.20;62.70;;;;;;5005170;28;20231;-55
2023/01/18 04:22:31;;;;;;;14.37;10.37;;;7.30;63.80;;;;;;5004471;28;20276;-56
2023/01/18 04:24:56;;;;;;;13.80;10.40;;;7.20;63.10;;;;;;5005210;28;20520;-57
2023/01/18 04:27:23;;;;;;;14.33;10.37;;;7.20;63.10;;;;;;5005940;28;20209;-56
2023/01/18 04:29:49;;;;;;;16.93;10.33;;;7.30;63.20;;;;;;5005381;28;20617;-56
2023/01/18 04:32:15;;;;;;;14.70;11.80;;;7.40;62.90;;;;;;5007694;28;20483;-57
2023/01/18 04:34:40;;;;;;;13.13;10.77;;;7.50;62.30;;;;;;5001501;28;20197;-57
2023/01/18 04:37:06;;;;;;;14.90;10.80;;;7.60;62.00;;;;;;5007104;28;20197;-57
2023/01/18 04:39:32;;;;;;;14.17;10.97;;;7.70;61.60;;;;;;5001148;28;20233;-56
2023/01/18 04:41:57;;;;;;;17.93;11.60;;;7.70;61.60;;;;;;5007418;28;20198;-56
2023/01/18 04:44:23;;;;;;;13.43;10.60;;;7.70;61.50;;;;;;5001377;28;20190;-56
2023/01/18 04:46:49;;;;;;;12.80;10.30;;;7.70;61.30;;;;;;5000142;28;20197;-56
2023/01/18 04:49:16;;;;;;;11.70;10.07;;;7.60;61.20;;;;;;4996603;28;20677;-57
2023/01/18 04:51:43;;;;;;;13.70;10.50;;;7.60;61.30;;;;;;5001909;28;20471;-58
2023/01/18 04:54:10;;;;;;;12.10;9.30;;;7.50;61.70;;;;;;5002735;28;20451;-56
2023/01/18 04:56:36;;;;;;;12.80;10.23;;;7.40;62.00;;;;;;5007055;28;20445;-56
2023/01/18 04:59:02;;;;;;;14.80;11.30;;;7.40;61.70;;;;;;5010637;28;21519;-56
2023/01/18 05:01:28;;;;;;;12.30;10.00;;;7.20;61.90;;;;;;5003003;28;20276;-58
2023/01/18 05:03:54;;;;;;;11.80;10.23;;;7.20;62.40;;;;;;5005659;28;20278;-56
2023/01/18 05:06:20;;;;;;;12.80;8.93;;;7.20;62.20;;;;;;4999652;28;20526;-56
2023/01/18 05:08:46;;;;;;;12.70;9.30;;;7.40;62.00;;;;;;5005330;28;21034;-57
2023/01/18 05:11:17;;;;;;;12.23;9.60;;;7.40;61.70;;;;;;5011947;28;20476;-56
2023/01/18 05:13:44;;;;;;;14.83;10.50;;;7.40;61.50;;;;;;5005324;28;20510;-56
2023/01/18 05:16:15;;;;;;;14.23;10.57;;;7.30;62.40;;;;;;5005858;28;20932;-57
2023/01/18 05:18:42;;;;;;;14.80;10.73;;;7.30;62.80;;;;;;5006098;28;20444;-58
2023/01/18 05:21:07;;;;;;;15.20;12.07;;;7.30;62.60;;;;;;5006849;28;20473;-57
2023/01/18 05:23:33;;;;;;;16.33;11.50;;;7.20;62.60;;;;;;5003741;28;20455;-57
2023/01/18 05:25:59;;;;;;;14.60;11.27;;;7.10;62.90;;;;;;5012202;28;20197;-57
2023/01/18 05:28:26;;;;;;;12.03;10.20;;;7.00;63.60;;;;;;5000693;28;20193;-57
2023/01/18 05:30:53;;;;;;;11.90;9.23;;;7.10;63.30;;;;;;5006531;28;20190;-57
2023/01/18 05:33:20;;;;;;;10.17;8.37;;;7.10;62.90;;;;;;5009610;28;20444;-57
2023/01/18 05:35:47;;;;;;;9.00;6.67;;;7.00;62.70;;;;;;5011894;28;20808;-57
2023/01/18 05:38:13;;;;;;;8.33;7.10;;;7.00;62.80;;;;;;5009274;28;20474;-57
2023/01/18 05:40:41;;;;;;;7.73;7.03;;;7.00;62.50;;;;;;5010316;28;20490;-57
2023/01/18 05:43:06;;;;;;;6.13;5.50;;;6.90;63.20;;;;;;5004192;28;20682;-57
2023/01/18 05:45:32;;;;;;;7.10;5.60;;;6.80;62.50;;;;;;5005722;28;20555;-57
2023/01/18 05:47:58;;;;;;;8.43;5.70;;;6.60;63.30;;;;;;5011710;28;20233;-57
2023/01/18 05:50:24;;;;;;;7.40;6.10;;;6.50;63.90;;;;;;4999759;28;20190;-57
2023/01/18 05:52:49;;;;;;;6.70;5.60;;;6.40;63.70;;;;;;5000518;28;20955;-57
2023/01/18 05:55:15;;;;;;;6.60;5.30;;;6.40;63.90;;;;;;5009094;28;20269;-57
2023/01/18 05:57:40;;;;;;;6.50;5.90;;;6.50;63.70;;;;;;5012694;28;20202;-57
2023/01/18 06:00:08;;;;;;;6.90;6.20;;;6.60;63.40;;;;;;5011795;28;20601;-57
2023/01/18 06:02:33;;;;;;;7.90;6.20;;;6.70;63.00;;;;;;5005588;28;20197;-57
2023/01/18 06:04:59;;;;;;;8.20;5.63;;;6.70;63.40;;;;;;5006324;28;20445;-57
2023/01/18 06:07:24;;;;;;;6.47;5.40;;;6.80;63.00;;;;;;5008745;28;20320;-57
2023/01/18 06:09:50;;;;;;;7.30;5.87;;;6.50;63.50;;;;;;5007693;28;20198;-57
2023/01/18 06:12:16;;;;;;;9.67;5.90;;;6.70;63.90;;;;;;5003295;28;20190;-57
2023/01/18 06:14:41;;;;;;;6.10;5.50;;;6.80;63.70;;;;;;4994879;28;20203;-57
2023/01/18 06:17:07;;;;;;;5.83;5.33;;;6.70;63.80;;;;;;5001999;28;20693;-57
2023/01/18 06:19:33;;;;;;;5.80;4.73;;;6.60;63.70;;;;;;5004092;28;20236;-57
2023/01/18 06:21:59;;;;;;;5.40;4.80;;;6.60;63.70;;;;;;5006938;28;20785;-57
2023/01/18 06:24:24;;;;;;;5.30;4.80;;;6.60;63.40;;;;;;5006604;28;20828;-57
2023/01/18 06:26:50;;;;;;;5.30;4.80;;;6.70;63.60;;;;;;5005248;28;20197;-57
2023/01/18 06:29:15;;;;;;;5.47;4.77;;;6.70;63.30;;;;;;5010100;28;20221;-57
2023/01/18 06:31:41;;;;;;;6.77;6.00;;;6.80;63.20;;;;;;5001274;28;20665;-57
2023/01/18 06:34:08;;;;;;;6.67;5.97;;;6.90;62.80;;;;;;4999045;28;20301;-58
2023/01/18 06:36:37;;;;;;;5.80;5.17;;;6.80;62.60;;;;;;5002035;28;20190;-57
2023/01/18 06:39:04;;;;;;;6.13;5.53;;;6.80;63.00;;;;;;5007362;28;20476;-57
2023/01/18 06:41:30;;;;;;;4.80;4.40;;;6.60;63.20;;;;;;5008371;28;20449;-57
2023/01/18 06:43:55;;;;;;;6.70;5.50;;;6.70;63.50;;;;;;5009603;28;20511;-57
2023/01/18 06:46:21;;;;;;;5.93;5.10;;;7.00;63.30;;;;;;5008000;28;20186;-57
2023/01/18 06:48:47;;;;;;;6.80;4.90;;;7.00;62.80;;;;;;5007034;28;20232;-57
2023/01/18 06:51:13;;;;;;;4.97;4.47;;;7.10;62.40;;;;;;5011239;28;20228;-57
2023/01/18 06:53:38;;;;;;;5.93;5.33;;;7.00;62.30;;;;;;5010405;28;20194;-57
2023/01/18 06:56:09;;;;;;;6.67;6.07;;;6.90;62.40;;;;;;5003481;28;20194;-56
2023/01/18 06:58:35;;;;;;;5.97;5.37;;;6.80;63.00;;;;;;5011307;28;20448;-57
2023/01/18 07:01:01;;;;;;;6.50;5.37;;;6.80;63.40;;;;;;5007915;28;20453;-57
2023/01/18 07:03:27;;;;;;;6.07;5.43;;;6.90;63.30;;;;;;5010686;28;20444;-58
2023/01/18 07:05:54;;;;;;;5.90;5.30;;;6.80;63.60;;;;;;5009542;28;20592;-57
2023/01/18 07:08:19;;;;;;;6.37;5.50;;;6.90;64.60;;;;;;5009173;28;20452;-57
2023/01/18 07:10:46;;;;;;;6.17;5.57;;;7.20;66.20;;;;;;5011967;28;20520;-57
2023/01/18 07:13:12;;;;;;;6.83;6.13;;;7.30;63.80;;;;;;5011450;28;20197;-56
2023/01/18 07:15:37;;;;;;;6.10;4.73;;;7.30;63.50;;;;;;5007269;28;20932;-57
2023/01/18 07:18:03;;;;;;;7.20;5.27;;;7.50;65.10;;;;;;5004434;28;20206;-57
2023/01/18 07:20:29;;;;;;;6.20;5.60;;;7.60;64.80;;;;;;5003989;28;20308;-57
2023/01/18 07:22:54;;;;;;;6.83;5.07;;;7.80;62.60;;;;;;5007392;28;20209;-57
2023/01/18 07:25:21;;;;;;;5.50;4.83;;;7.80;61.30;;;;;;5002679;28;20194;-57
2023/01/18 07:27:50;;;;;;;5.00;4.30;;;8.00;61.40;;;;;;5008502;28;20195;-57
2023/01/18 07:30:16;;;;;;;4.70;4.23;;;8.10;60.30;;;;;;5005598;28;20952;-57
2023/01/18 07:32:50;;;;;;;5.57;4.90;;;8.20;64.10;;;;;;5003130;28;20444;-57
2023/01/18 07:35:17;;;;;;;8.37;7.40;;;8.60;62.80;;;;;;5001987;28;20473;-56
2023/01/18 07:37:48;;;;;;;6.10;5.30;;;8.60;59.40;;;;;;5006587;28;20472;-57
2023/01/18 07:40:14;;;;;;;6.40;4.10;;;8.60;58.50;;;;;;5007664;28;20480;-56
2023/01/18 07:42:40;;;;;;;5.20;4.70;;;8.50;58.90;;;;;;4995919;28;20453;-57
2023/01/18 07:45:07;;;;;;;5.30;4.70;;;8.60;60.00;;;;;;4998998;28;22428;-56
2023/01/18 07:47:34;;;;;;;6.63;5.10;;;8.70;58.80;;;;;;5006720;28;20225;-55
2023/01/18 07:50:00;;;;;;;7.60;4.60;;;8.90;60.00;;;;;;5009002;28;20448;-57
2023/01/18 07:52:26;;;;;;;6.83;5.00;;;9.20;60.00;;;;;;5001194;28;20463;-57
2023/01/18 07:54:51;;;;;;;4.70;4.07;;;9.30;59.50;;;;;;5005853;28;20709;-57
2023/01/18 07:57:17;;;;;;;5.67;4.87;;;9.50;59.10;;;;;;5004841;28;20276;-57
2023/01/18 07:59:42;;;;;;;5.90;5.30;;;9.50;58.30;;;;;;5004717;28;20268;-55
2023/01/18 08:02:11;;;;;;;6.30;5.70;;;9.40;58.00;;;;;;5008615;28;20661;-54
2023/01/18 08:04:38;;;;;;;7.90;6.63;;;8.70;56.90;;;;;;5002379;28;20900;-55
2023/01/18 08:07:04;;;;;;;7.57;6.67;;;8.50;57.60;;;;;;5004560;28;20440;-55
2023/01/18 08:09:32;;;;;;;9.37;6.83;;;8.10;59.40;;;;;;5008631;28;20813;-55
2023/01/18 08:11:58;;;;;;;8.63;7.80;;;7.90;59.60;;;;;;5003462;28;20492;-54
2023/01/18 08:14:24;;;;;;;9.00;7.20;;;8.10;60.70;;;;;;4998891;28;20468;-48
2023/01/18 08:16:49;;;;;;;10.67;8.23;;;7.80;59.50;;;;;;5007630;28;20831;-52
2023/01/18 08:19:16;;;;;;;8.13;6.20;;;7.90;60.20;;;;;;5007815;28;20700;-50
2023/01/18 08:21:42;;;;;;;11.80;9.83;;;7.90;59.30;;;;;;5010282;28;20251;-50
2023/01/18 08:24:07;;;;;;;10.30;8.47;;;8.00;58.80;;;;;;5008405;28;20560;-51
2023/01/18 08:26:33;;;;;;;8.63;6.93;;;7.90;62.60;;;;;;5007466;28;20607;-49
2023/01/18 08:28:59;;;;;;;9.17;7.80;;;8.10;65.60;;;;;;5007154;28;20594;-51
2023/01/18 08:31:25;;;;;;;9.40;8.10;;;8.50;63.10;;;;;;4991893;28;20559;-49
2023/01/18 08:33:51;;;;;;;9.30;8.30;;;8.50;57.90;;;;;;5008024;28;20456;-49
2023/01/18 08:36:20;;;;;;;9.37;8.23;;;8.30;57.30;;;;;;5006853;28;20201;-50
2023/01/18 08:38:56;;;;;;;11.33;8.23;;;8.00;58.30;;;;;;5009537;28;20853;-53
2023/01/18 08:41:27;;;;;;;9.83;7.63;;;7.70;58.40;;;;;;5003114;28;20478;-50
2023/01/18 08:43:53;;;;;;;9.33;8.17;;;7.30;58.90;;;;;;5009457;28;20459;-51
2023/01/18 08:46:20;;;;;;;9.33;8.40;;;7.10;59.70;;;;;;5010711;28;20445;-50
2023/01/18 08:48:54;;;;;;;9.70;8.70;;;7.20;59.90;;;;;;5010759;28;20477;-49
2023/01/18 08:51:21;;;;;;;8.10;7.30;;;7.00;59.80;;;;;;5003805;28;20498;-51
2023/01/18 08:53:50;;;;;;;9.00;8.10;;;7.00;60.30;;;;;;5006099;28;21312;-50
2023/01/18 08:56:16;;;;;;;8.10;7.23;;;6.70;61.30;;;;;;5010051;28;20445;-49
2023/01/18 08:58:42;;;;;;;9.17;8.27;;;6.60;61.40;;;;;;5007887;28;20437;-50
2023/01/18 09:01:08;;;;;;;9.03;8.13;;;6.30;62.50;;;;;;5008333;28;20837;-49
2023/01/18 09:03:34;;;;;;;7.73;7.03;;;6.50;62.80;;;;;;4999708;28;20198;-50
2023/01/18 09:06:01;;;;;;;8.70;7.77;;;6.70;62.60;;;;;;5009188;28;20445;-52
2023/01/18 09:08:27;;;;;;;11.03;7.43;;;6.70;62.30;;;;;;5005126;28;20943;-49
2023/01/18 09:10:52;;;;;;;8.63;7.73;;;6.70;61.80;;;;;;5008548;28;20463;-51
2023/01/18 09:13:18;;;;;;;9.97;8.43;;;6.70;62.10;;;;;;4996013;28;20222;-51
2023/01/18 09:15:46;;;;;;;8.20;7.40;;;6.90;61.80;;;;;;5003588;28;20866;-48
2023/01/18 09:18:12;;;;;;;8.30;6.90;;;6.70;61.80;;;;;;5005580;28;20198;-48
2023/01/18 09:20:38;;;;;;;9.53;8.63;;;6.80;62.40;;;;;;5004889;28;20492;-48
2023/01/18 09:23:08;;;;;;;8.10;7.30;;;6.80;62.00;;;;;;5004422;28;20971;-50
2023/01/18 09:25:36;;;;;;;9.17;8.20;;;6.90;62.20;;;;;;4998810;28;20202;-49
2023/01/18 09:28:03;;;;;;;8.77;7.93;;;7.00;62.00;;;;;;5003923;28;20444;-50
2023/01/18 09:30:30;;;;;;;9.00;8.20;;;6.90;61.60;;;;;;5008232;28;20452;-50
2023/01/18 09:32:56;;;;;;;8.80;7.90;;;6.90;61.80;;;;;;4996198;28;20544;-50
2023/01/18 09:35:22;;;;;;;8.53;7.73;;;6.90;61.70;;;;;;5009698;28;20429;-48
2023/01/18 09:37:48;;;;;;;8.00;7.03;;;6.70;62.00;;;;;;5006776;28;20548;-49
2023/01/18 09:40:19;;;;;;;8.00;7.20;;;6.50;62.30;;;;;;5009134;28;20571;-49
2023/01/18 09:42:46;;;;;;;8.90;7.50;;;6.50;62.80;;;;;;5011192;28;20257;-51
2023/01/18 09:45:33;;;;;;;7.43;6.63;;;6.30;62.80;;;;;;5009628;28;20524;-49
2023/01/18 09:48:05;;;;;;;8.13;7.33;;;6.30;62.90;;;;;;5010562;28;20509;-49
2023/01/18 09:50:41;;;;;;;7.80;7.00;;;6.20;63.40;;;;;;5005426;28;20540;-48
2023/01/18 09:53:15;;;;;;;8.80;7.80;;;6.40;63.90;;;;;;5005700;28;20452;-49
2023/01/18 09:55:55;;;;;;;8.73;6.77;;;6.30;64.10;;;;;;5009918;28;20437;-51
2023/01/18 09:58:49;;;;;;;7.33;6.63;;;6.30;63.90;;;;;;5006409;28;20472;-50
2023/01/18 10:01:18;;;;;;;9.37;7.90;;;6.40;63.50;;;;;;5009032;28;20471;-48
2023/01/18 10:03:56;;;;;;;8.10;7.30;;;6.50;63.40;;;;;;5002875;28;20449;-50
2023/01/18 10:06:29;;;;;;;8.93;7.23;;;6.20;63.60;;;;;;5006540;28;20536;-49
2023/01/18 10:09:11;;;;;;;8.37;7.50;;;6.20;64.00;;;;;;5006970;28;20507;-48
2023/01/18 10:11:43;;;;;;;8.80;6.93;;;6.40;63.70;;;;;;5008946;28;20519;-48
2023/01/18 10:14:27;;;;;;;9.43;6.23;;;6.30;63.70;;;;;;5000787;28;21020;-50
2023/01/18 10:16:56;;;;;;;8.53;6.50;;;6.20;63.60;;;;;;5000927;28;20451;-49
2023/01/18 10:19:27;;;;;;;6.13;5.53;;;6.20;63.80;;;;;;5007257;28;20512;-49
2023/01/18 10:22:07;;;;;;;10.50;8.60;;;6.00;64.10;;;;;;5004494;28;20436;-49
2023/01/18 10:24:58;;;;;;;7.10;5.90;;;6.10;64.50;;;;;;5000590;28;20464;-51
2023/01/18 10:27:30;;;;;;;9.10;6.20;;;6.00;65.00;;;;;;5003055;28;20456;-48
2023/01/18 10:30:35;;;;;;;6.20;5.60;;;6.20;64.60;;;;;;5009168;28;20812;-49
2023/01/18 10:33:18;;;;;;;6.40;5.57;;;6.30;64.10;;;;;;5012018;28;20487;-49
2023/01/18 10:35:48;;;;;;;8.43;6.47;;;6.50;64.10;;;;;;5006603;28;21067;-48
2023/01/18 10:38:19;;;;;;;7.40;6.67;;;6.40;63.70;;;;;;5011407;28;20452;-49
2023/01/18 10:40:50;;;;;;;6.40;5.80;;;6.40;63.60;;;;;;5009125;28;20488;-49
2023/01/18 10:43:20;;;;;;;8.07;6.47;;;6.60;63.60;;;;;;5010955;28;20436;-49
2023/01/18 10:45:45;;;;;;;7.50;6.80;;;6.60;63.10;;;;;;5003724;28;20457;-48
2023/01/18 10:48:17;;;;;;;7.17;6.47;;;6.60;62.70;;;;;;5001682;28;21242;-49
2023/01/18 10:50:51;;;;;;;7.50;6.70;;;6.50;62.50;;;;;;4999002;28;20548;-48
2023/01/18 10:53:37;;;;;;;8.60;7.10;;;6.50;63.10;;;;;;5003158;28;20510;-50
2023/01/18 10:56:09;;;;;;;9.50;8.03;;;6.30;63.70;;;;;;5006889;28;20523;-48
2023/01/18 10:58:43;;;;;;;12.83;8.53;;;6.20;63.40;;;;;;5003365;28;20448;-48
2023/01/18 11:01:16;;;;;;;10.03;7.67;;;6.50;63.80;;;;;;5008548;28;20484;-48
2023/01/18 11:04:19;;;;;;;7.73;7.03;;;6.50;63.20;;;;;;5003523;28;20457;-49
2023/01/18 11:06:49;;;;;;;9.23;8.27;;;6.60;62.90;;;;;;4998856;28;20823;-49
2023/01/18 11:09:33;;;;;;;8.93;7.23;;;6.60;63.30;;;;;;4999687;28;20512;-52
2023/01/18 11:12:46;;;;;;;10.43;7.00;;;6.50;62.90;;;;;;5000284;28;21247;-50
2023/01/18 11:15:15;;;;;;;9.30;6.93;;;6.60;63.20;;;;;;5010427;28;20452;-49
2023/01/18 11:17:53;;;;;;;8.73;7.83;;;6.60;63.70;;;;;;5009150;28;20453;-49
2023/01/18 11:20:46;;;;;;;10.67;7.67;;;6.50;63.30;;;;;;5007104;28;20857;-49
2023/01/18 11:23:24;;;;;;;10.27;7.20;;;6.40;63.70;;;;;;5002729;28;20491;-49
2023/01/18 11:26:03;;;;;;;7.53;6.80;;;6.30;63.90;;;;;;4995859;28;20541;-51
2023/01/18 11:28:53;;;;;;;8.37;6.90;;;6.40;63.60;;;;;;4995925;28;20574;-51
2023/01/18 11:31:21;;;;;;;9.73;6.60;;;6.20;63.70;;;;;;5007822;28;20488;-51
2023/01/18 11:33:53;;;;;;;6.83;6.20;;;6.40;63.50;;;;;;5003854;28;20445;-50
2023/01/18 11:36:32;;;;;;;8.00;6.83;;;6.40;63.30;;;;;;5005740;28;20506;-51
2023/01/18 11:39:17;;;;;;;7.50;6.20;;;6.40;63.20;;;;;;5004429;28;20449;-52
2023/01/18 11:41:42;;;;;;;7.27;5.87;;;6.60;62.90;;;;;;4992823;28;20481;-51
2023/01/18 11:44:33;;;;;;;8.13;6.67;;;6.30;62.60;;;;;;5004654;28;20469;-51
2023/01/18 11:47:02;;;;;;;7.80;6.40;;;6.20;63.20;;;;;;5003618;28;20202;-52
2023/01/18 11:49:46;;;;;;;8.70;6.67;;;6.10;63.20;;;;;;5005327;28;20460;-53
2023/01/18 11:52:41;;;;;;;9.07;6.80;;;6.30;63.10;;;;;;5022441;28;20607;-52
2023/01/18 11:55:19;;;;;;;8.90;6.20;;;6.50;62.70;;;;;;5005875;28;20819;-53
2023/01/18 11:57:45;;;;;;;7.17;5.20;;;6.40;61.90;;;;;;5007342;28;20445;-52
2023/01/18 12:00:14;;;;;;;8.90;6.40;;;6.30;62.30;;;;;;5002951;28;21028;-51
2023/01/18 12:02:46;;;;;;;7.10;5.47;;;6.40;62.70;;;;;;4994425;28;20325;-50
2023/01/18 12:05:43;;;;;;;7.57;6.13;;;6.40;62.30;;;;;;5008388;28;20471;-51
2023/01/18 12:08:09;;;;;;;6.60;5.63;;;6.20;62.10;;;;;;5008396;28;20477;-52
2023/01/18 12:11:02;;;;;;;9.33;5.80;;;6.20;62.70;;;;;;5010567;28;20452;-50
2023/01/18 12:13:58;;;;;;;7.33;5.53;;;6.10;62.80;;;;;;5004878;28;20511;-49
2023/01/18 12:16:59;;;;;;;7.57;5.80;;;5.90;62.80;;;;;;4998817;28;20452;-53
2023/01/18 12:19:49;;;;;;;7.03;5.83;;;5.80;63.70;;;;;;5001624;28;20481;-50
2023/01/18 12:22:31;;;;;;;8.67;5.90;;;6.00;64.40;;;;;;5009113;28;20838;-52
2023/01/18 12:25:31;;;;;;;11.17;6.07;;;6.00;64.10;;;;;;5010987;28;20445;-52
2023/01/18 12:28:26;;;;;;;7.80;6.63;;;6.20;63.70;;;;;;4997535;28;20511;-52
2023/01/18 12:31:26;;;;;;;7.00;6.00;;;6.50;63.00;;;;;;5005228;28;20491;-52
2023/01/18 12:33:52;;;;;;;11.13;6.17;;;6.50;62.70;;;;;;4998090;28;20456;-53
2023/01/18 12:37:01;;;;;;;9.27;7.13;;;6.60;62.30;;;;;;5005636;28;20873;-51
2023/01/18 12:39:54;;;;;;;7.10;5.70;;;6.80;61.70;;;;;;4986120;28;20603;-49
2023/01/18 12:42:44;;;;;;;6.90;5.67;;;6.60;61.90;;;;;;4999605;28;20448;-49
2023/01/18 12:45:30;;;;;;;7.27;5.73;;;6.50;62.00;;;;;;4999414;28;20528;-51
2023/01/18 12:48:14;;;;;;;6.67;5.97;;;6.40;61.70;;;;;;5005117;28;20492;-49
2023/01/18 12:50:42;;;;;;;6.20;5.20;;;6.40;61.90;;;;;;5008356;28;20473;-50
2023/01/18 12:53:38;;;;;;;9.33;5.73;;;6.50;62.00;;;;;;5005164;28;20873;-50
2023/01/18 12:56:12;;;;;;;8.70;5.77;;;6.60;61.90;;;;;;5005210;28;20540;-49
2023/01/18 12:58:39;;;;;;;8.40;5.80;;;6.50;61.60;;;;;;5009657;28;20544;-51
2023/01/18 13:01:09;;;;;;;8.67;5.57;;;6.50;61.90;;;;;;5009813;28;20523;-52
2023/01/18 13:03:41;;;;;;;7.13;5.60;;;6.40;61.40;;;;;;4996735;28;20453;-52
2023/01/18 13:06:09;;;;;;;8.23;5.70;;;6.40;60.70;;;;;;4992311;28;20444;-50
2023/01/18 13:08:55;;;;;;;6.67;5.70;;;6.40;61.00;;;;;;5002496;28;20472;-50
2023/01/18 13:11:25;;;;;;;9.57;6.73;;;6.60;60.70;;;;;;5006819;28;20555;-53
2023/01/18 13:14:01;;;;;;;6.60;5.10;;;6.60;59.70;;;;;;5011200;28;20444;-52
2023/01/18 13:16:39;;;;;;;7.77;5.10;;;6.60;59.60;;;;;;5004685;28;20459;-49
2023/01/18 13:19:06;;;;;;;7.30;4.83;;;6.40;59.80;;;;;;5007314;28;20491;-51
2023/01/18 13:21:45;;;;;;;6.07;4.87;;;6.50;60.50;;;;;;5004822;28;20445;-53
2023/01/18 13:24:38;;;;;;;6.67;4.60;;;6.60;60.00;;;;;;4999591;28;20476;-49
2023/01/18 13:27:13;;;;;;;9.43;5.67;;;7.00;59.60;;;;;;5001295;28;20481;-51
2023/01/18 13:29:40;;;;;;;7.57;6.10;;;7.10;59.40;;;;;;5008186;28;20532;-50
2023/01/18 13:32:29;;;;;;;9.93;5.43;;;7.20;59.40;;;;;;5010152;28;20448;-49
2023/01/18 13:35:01;;;;;;;7.50;4.60;;;7.10;59.30;;;;;;5008942;28;20459;-50
2023/01/18 13:37:46;;;;;;;8.67;5.63;;;7.10;59.20;;;;;;5005375;28;20453;-49
2023/01/18 13:40:27;;;;;;;9.00;5.93;;;7.10;58.90;;;;;;5008918;28;20567;-49
2023/01/18 13:42:52;;;;;;;6.67;5.13;;;6.90;59.30;;;;;;5006026;28;20457;-52
2023/01/18 13:45:29;;;;;;;11.90;6.40;;;7.10;59.40;;;;;;5002489;28;22118;-50
2023/01/18 13:48:00;;;;;;;9.63;6.07;;;7.20;59.60;;;;;;5001000;28;20247;-50
2023/01/18 13:50:30;;;;;;;9.63;6.70;;;7.10;59.60;;;;;;5010382;28;20450;-51